createdAt,value
2022-07-29T00:01:21.240Z,24.78
2022-07-29T00:03:49.704Z,24.92
2022-07-29T00:06:18.342Z,25.14
2022-07-29T00:08:46.680Z,25.01
2022-07-29T00:11:15.041Z,24.70
2022-07-29T00:13:45.381Z,25.01
2022-07-29T00:16:17.424Z,25.07
2022-07-29T00:18:45.362Z,25.20
2022-07-29T00:21:13.518Z,25.29
2022-07-29T00:23:41.876Z,25.04
2022-07-29T00:26:10.149Z,24.81
2022-07-29T00:28:37.855Z,24.64
2022-07-29T00:31:06.545Z,24.47
2022-07-29T00:33:34.565Z,24.46
2022-07-29T00:36:03.404Z,24.87
2022-07-29T00:38:31.229Z,25.24
2022-07-29T00:40:59.592Z,25.32
2022-07-29T00:43:28.228Z,25.44
2022-07-29T00:45:56.656Z,24.92
2022-07-29T00:48:24.785Z,25.10
2022-07-29T00:50:52.702Z,25.43
2022-07-29T00:53:21.525Z,25.28
2022-07-29T00:55:49.924Z,24.95
2022-07-29T00:58:20.921Z,24.92
2022-07-29T01:00:48.916Z,24.69
2022-07-29T01:03:17.521Z,24.65
2022-07-29T01:05:49.686Z,24.53
2022-07-29T01:08:20.430Z,24.26
2022-07-29T01:10:49.305Z,24.32
2022-07-29T01:13:18.785Z,24.52
2022-07-29T01:15:52.861Z,24.67
2022-07-29T01:18:40.832Z,24.71
2022-07-29T01:21:17.672Z,24.75
2022-07-29T01:24:10.023Z,24.67
2022-07-29T01:27:15.727Z,24.15
2022-07-29T01:30:05.277Z,24.04
2022-07-29T01:32:38.494Z,23.94
2022-07-29T01:35:16.771Z,23.96
2022-07-29T01:37:50.240Z,24.31
2022-07-29T01:40:23.411Z,24.46
2022-07-29T01:42:55.505Z,24.18
2022-07-29T01:45:43.181Z,24.30
2022-07-29T01:48:32.695Z,24.36
2022-07-29T01:51:09.291Z,24.48
2022-07-29T01:53:43.825Z,24.60
2022-07-29T01:56:15.016Z,24.58
2022-07-29T01:58:45.156Z,24.59
2022-07-29T02:01:15.073Z,24.45
2022-07-29T02:03:46.065Z,24.43
2022-07-29T02:06:20.731Z,24.27
2022-07-29T02:08:51.423Z,24.17
2022-07-29T02:11:19.849Z,24.13
2022-07-29T02:13:50.377Z,23.99
2022-07-29T02:16:23.393Z,23.87
2022-07-29T02:18:53.921Z,23.85
2022-07-29T02:21:26.304Z,23.80
2022-07-29T02:23:55.987Z,23.71
2022-07-29T02:26:27.233Z,23.59
2022-07-29T02:28:58.448Z,23.73
2022-07-29T02:31:31.492Z,23.84
2022-07-29T02:34:01.762Z,23.76
2022-07-29T02:36:31.803Z,23.61
2022-07-29T02:39:01.835Z,23.55
2022-07-29T02:41:41.691Z,23.47
2022-07-29T02:44:17.897Z,23.44
2022-07-29T02:46:53.294Z,23.41
2022-07-29T02:49:24.800Z,23.44
2022-07-29T02:51:56.808Z,23.40
2022-07-29T02:54:38.649Z,23.39
2022-07-29T02:57:13.255Z,23.36
2022-07-29T02:59:43.787Z,23.48
2022-07-29T03:02:15.008Z,23.53
2022-07-29T03:04:45.229Z,23.64
2022-07-29T03:07:19.509Z,23.78
2022-07-29T03:09:47.559Z,23.74
2022-07-29T03:12:16.449Z,23.66
2022-07-29T03:14:45.797Z,23.55
2022-07-29T03:17:14.950Z,23.58
2022-07-29T03:19:44.007Z,23.52
2022-07-29T03:22:12.109Z,23.60
2022-07-29T03:24:40.239Z,23.70
2022-07-29T03:27:08.483Z,23.87
2022-07-29T03:29:36.402Z,23.82
2022-07-29T03:32:08.182Z,23.89
2022-07-29T03:34:39.043Z,23.95
2022-07-29T03:37:07.563Z,24.00
2022-07-29T03:39:41.986Z,24.04
2022-07-29T03:42:15.009Z,23.84
2022-07-29T03:44:46.974Z,23.99
2022-07-29T03:47:16.692Z,23.91
2022-07-29T03:49:49.773Z,23.79
2022-07-29T03:52:18.505Z,23.77
2022-07-29T03:54:46.876Z,23.88
2022-07-29T03:57:16.286Z,23.96
2022-07-29T03:59:45.242Z,23.94
2022-07-29T04:02:14.924Z,23.98
2022-07-29T04:04:45.512Z,24.06
2022-07-29T04:07:14.824Z,24.12
2022-07-29T04:09:43.269Z,24.05
2022-07-29T04:12:12.303Z,24.20
2022-07-29T04:14:40.111Z,24.29
2022-07-29T04:17:09.049Z,24.26
2022-07-29T04:19:36.871Z,24.35
2022-07-29T04:22:05.070Z,24.33
2022-07-29T04:24:33.678Z,24.30
2022-07-29T04:27:01.420Z,24.24
2022-07-29T04:29:29.517Z,23.80
2022-07-29T04:31:57.345Z,23.83
2022-07-29T04:34:28.288Z,23.81
2022-07-29T04:36:56.985Z,23.84
2022-07-29T04:39:25.727Z,23.64
2022-07-29T04:41:57.431Z,23.52
2022-07-29T04:44:28.599Z,23.60
2022-07-29T04:46:57.936Z,23.59
2022-07-29T04:49:25.984Z,23.58
2022-07-29T04:51:54.108Z,23.62
2022-07-29T04:54:21.855Z,23.58
2022-07-29T04:56:50.376Z,23.56
2022-07-29T04:59:18.348Z,23.48
2022-07-29T05:01:46.182Z,23.59
2022-07-29T05:04:14.275Z,23.60
2022-07-29T05:06:42.920Z,23.67
2022-07-29T05:09:11.247Z,23.94
2022-07-29T05:11:39.452Z,23.78
2022-07-29T05:14:07.745Z,23.87
2022-07-29T05:16:35.622Z,24.21
2022-07-29T05:19:03.752Z,24.24
2022-07-29T05:21:32.380Z,24.21
2022-07-29T05:24:00.526Z,24.10
2022-07-29T05:26:28.505Z,24.26
2022-07-29T05:28:56.347Z,24.22
2022-07-29T05:31:24.738Z,24.49
2022-07-29T05:33:52.524Z,24.65
2022-07-29T05:36:20.463Z,24.54
2022-07-29T05:38:48.202Z,24.58
2022-07-29T05:41:16.419Z,24.61
2022-07-29T05:43:44.157Z,24.70
2022-07-29T05:46:12.740Z,24.82
2022-07-29T05:48:41.003Z,25.01
2022-07-29T05:51:08.727Z,25.21
2022-07-29T05:53:36.748Z,25.56
2022-07-29T05:56:06.510Z,25.84
2022-07-29T05:58:34.499Z,26.08
2022-07-29T06:01:03.343Z,26.14
2022-07-29T06:03:31.609Z,25.87
2022-07-29T06:06:01.495Z,26.09
2022-07-29T06:08:30.268Z,26.33
2022-07-29T06:10:59.145Z,26.25
2022-07-29T06:13:27.361Z,26.15
2022-07-29T06:15:55.210Z,26.01
2022-07-29T06:18:24.958Z,26.23
2022-07-29T06:20:54.575Z,26.55
2022-07-29T06:23:22.468Z,26.55
2022-07-29T06:25:50.705Z,26.79
2022-07-29T06:28:18.484Z,27.13
2022-07-29T06:30:46.420Z,26.81
2022-07-29T06:33:19.811Z,26.87
2022-07-29T06:35:53.180Z,26.91
2022-07-29T06:38:30.206Z,27.00
2022-07-29T06:41:03.891Z,27.02
2022-07-29T06:43:50.592Z,27.13
2022-07-29T06:46:21.806Z,27.34
2022-07-29T06:48:50.267Z,27.34
2022-07-29T06:51:22.390Z,27.83
2022-07-29T06:54:00.658Z,28.24
2022-07-29T06:56:38.429Z,28.78
2022-07-29T06:59:09.979Z,28.47
2022-07-29T07:01:39.254Z,28.45
2022-07-29T07:04:18.567Z,28.16
2022-07-29T07:06:51.885Z,28.15
2022-07-29T07:09:20.053Z,27.93
2022-07-29T07:11:49.498Z,27.84
2022-07-29T07:14:18.810Z,27.74
2022-07-29T07:16:46.761Z,27.65
2022-07-29T07:19:15.938Z,27.98
2022-07-29T07:21:43.929Z,28.19
2022-07-29T07:24:13.322Z,28.32
2022-07-29T07:26:41.538Z,27.88
2022-07-29T07:29:09.282Z,27.56
2022-07-29T07:31:38.481Z,27.51
2022-07-29T07:34:06.404Z,27.76
2022-07-29T07:36:34.554Z,28.12
2022-07-29T07:39:03.455Z,28.45
2022-07-29T07:41:32.641Z,28.70
2022-07-29T07:44:00.485Z,28.63
2022-07-29T07:46:28.413Z,28.47
2022-07-29T07:48:56.109Z,28.48
2022-07-29T07:51:23.832Z,28.77
2022-07-29T07:53:51.611Z,28.68
2022-07-29T07:56:19.599Z,28.48
2022-07-29T07:58:47.695Z,28.42
2022-07-29T08:01:18.836Z,28.94
2022-07-29T08:03:46.910Z,28.84
2022-07-29T08:06:14.791Z,28.81
2022-07-29T08:08:42.862Z,28.87
2022-07-29T08:11:11.188Z,29.21
2022-07-29T08:13:39.774Z,29.35
2022-07-29T08:16:16.309Z,29.37
2022-07-29T08:18:46.862Z,29.38
2022-07-29T08:21:16.509Z,29.40
2022-07-29T08:23:57.621Z,29.61
2022-07-29T08:26:26.173Z,29.68
2022-07-29T08:28:54.604Z,29.95
2022-07-29T08:31:22.419Z,30.13
2022-07-29T08:33:50.846Z,30.15
2022-07-29T08:36:18.950Z,30.08
2022-07-29T08:38:47.471Z,30.02
2022-07-29T08:41:15.945Z,30.31
2022-07-29T08:43:43.823Z,30.35
2022-07-29T08:46:12.088Z,30.64
2022-07-29T08:48:40.407Z,30.71
2022-07-29T08:51:09.763Z,30.95
2022-07-29T08:53:39.200Z,30.78
2022-07-29T08:56:07.638Z,30.97
2022-07-29T08:58:36.847Z,31.04
2022-07-29T09:01:05.050Z,30.98
2022-07-29T09:03:38.626Z,30.85
2022-07-29T09:06:07.183Z,30.95
2022-07-29T09:08:35.726Z,30.53
2022-07-29T09:11:05.292Z,30.79
2022-07-29T09:13:33.747Z,30.84
2022-07-29T09:16:07.043Z,31.10
2022-07-29T09:18:42.944Z,31.22
2022-07-29T09:21:33.934Z,31.43
2022-07-29T09:24:14.888Z,31.66
2022-07-29T09:26:45.326Z,32.12
2022-07-29T09:29:21.272Z,32.11
2022-07-29T09:31:52.097Z,31.94
2022-07-29T09:34:25.233Z,31.89
2022-07-29T09:36:54.256Z,32.12
2022-07-29T09:39:35.273Z,31.71
2022-07-29T09:42:06.270Z,32.29
2022-07-29T09:44:49.294Z,32.47
2022-07-29T09:47:22.825Z,32.82
2022-07-29T09:49:55.508Z,32.71
2022-07-29T09:52:23.730Z,32.38
2022-07-29T09:54:51.819Z,32.81
2022-07-29T09:57:38.042Z,33.29
2022-07-29T10:00:08.261Z,33.63
2022-07-29T10:02:45.219Z,33.32
2022-07-29T10:05:23.747Z,33.21
2022-07-29T10:07:57.699Z,33.04
2022-07-29T10:10:29.230Z,32.98
2022-07-29T10:13:01.791Z,33.36
2022-07-29T10:15:44.993Z,33.41
2022-07-29T10:18:15.615Z,33.32
2022-07-29T10:20:43.743Z,33.14
2022-07-29T10:23:12.349Z,33.05
2022-07-29T10:25:45.680Z,32.96
2022-07-29T10:28:16.809Z,33.89
2022-07-29T10:30:47.254Z,33.61
2022-07-29T10:33:38.442Z,33.71
2022-07-29T10:36:25.254Z,33.77
2022-07-29T10:38:55.174Z,33.97
2022-07-29T10:41:57.565Z,34.28
2022-07-29T10:44:28.370Z,34.04
2022-07-29T10:46:56.742Z,34.07
2022-07-29T10:49:30.375Z,34.51
2022-07-29T10:52:10.655Z,35.25
2022-07-29T10:54:42.567Z,35.14
2022-07-29T10:57:52.565Z,34.93
2022-07-29T11:00:17.331Z,34.67
2022-07-29T11:02:54.398Z,36.21
2022-07-29T11:05:24.646Z,36.56
2022-07-29T11:08:20.500Z,37.30
2022-07-29T11:10:50.361Z,37.44
2022-07-29T11:13:56.924Z,37.62
2022-07-29T11:16:26.655Z,36.77
2022-07-29T11:19:26.477Z,36.65
2022-07-29T11:21:58.959Z,37.85
2022-07-29T11:24:30.108Z,38.58
2022-07-29T11:27:23.398Z,38.93
2022-07-29T11:29:58.887Z,38.89
2022-07-29T11:32:38.784Z,38.89
2022-07-29T11:35:36.928Z,37.79
2022-07-29T11:38:31.777Z,36.67
2022-07-29T11:41:18.243Z,37.15
2022-07-29T11:43:58.423Z,37.93
2022-07-29T11:49:45.596Z,39.46
2022-07-29T11:52:16.201Z,39.47
2022-07-29T11:54:57.753Z,40.37
2022-07-29T11:57:36.675Z,41.59
2022-07-29T12:00:12.539Z,40.84
2022-07-29T12:02:48.092Z,41.13
2022-07-29T12:07:02.023Z,38.57
2022-07-29T12:07:02.572Z,40.47
2022-07-29T12:08:08.729Z,40.85
2022-07-29T12:10:42.803Z,41.34
2022-07-29T12:13:11.632Z,41.93
2022-07-29T12:15:47.248Z,40.76
2022-07-29T12:18:24.347Z,41.17
2022-07-29T12:21:03.805Z,41.32
2022-07-29T12:23:35.100Z,41.05
2022-07-29T12:26:10.728Z,41.26
2022-07-29T12:28:39.968Z,40.88
2022-07-29T12:31:41.971Z,40.74
2022-07-29T12:34:03.574Z,41.56
2022-07-29T12:36:31.606Z,41.13
2022-07-29T12:38:59.475Z,41.70
2022-07-29T12:41:30.071Z,41.79
2022-07-29T12:43:57.809Z,42.79
2022-07-29T12:46:26.181Z,41.62
2022-07-29T12:48:56.160Z,42.30
2022-07-29T12:51:38.978Z,41.93
2022-07-29T12:54:11.742Z,41.72
2022-07-29T12:56:44.684Z,43.60
2022-07-29T12:59:24.024Z,45.04
2022-07-29T13:01:53.278Z,46.22
2022-07-29T13:04:37.649Z,47.49
2022-07-29T13:07:09.248Z,47.86
2022-07-29T13:09:43.938Z,48.22
2022-07-29T13:12:13.957Z,47.88
2022-07-29T13:14:44.754Z,48.08
2022-07-29T13:17:18.721Z,48.03
2022-07-29T13:20:09.865Z,48.66
2022-07-29T13:22:38.076Z,49.07
2022-07-29T13:25:07.700Z,48.88
2022-07-29T13:27:39.129Z,47.92
2022-07-29T13:30:10.514Z,48.69
2022-07-29T13:32:38.791Z,47.62
2022-07-29T13:35:09.389Z,47.44
2022-07-29T13:37:39.545Z,48.10
2022-07-29T13:40:09.656Z,49.03
2022-07-29T13:42:38.600Z,49.90
2022-07-29T13:45:07.785Z,49.68
2022-07-29T13:47:36.066Z,50.21
2022-07-29T13:50:06.260Z,50.51
2022-07-29T13:52:35.933Z,49.69
2022-07-29T13:55:04.712Z,50.12
2022-07-29T13:57:33.485Z,49.15
2022-07-29T14:00:01.223Z,48.25
2022-07-29T14:02:36.392Z,46.36
2022-07-29T14:05:08.402Z,44.49
2022-07-29T14:07:39.702Z,42.30
2022-07-29T14:10:08.502Z,39.83
2022-07-29T14:12:37.719Z,39.13
2022-07-29T14:15:06.067Z,38.25
2022-07-29T14:17:33.765Z,38.14
2022-07-29T14:20:02.385Z,37.50
2022-07-29T14:22:31.071Z,37.39
2022-07-29T14:24:59.669Z,36.82
2022-07-29T14:27:44.258Z,36.01
2022-07-29T14:30:12.985Z,35.82
2022-07-29T14:32:40.955Z,35.52
2022-07-29T14:35:09.183Z,35.86
2022-07-29T14:37:40.170Z,35.86
2022-07-29T14:40:11.378Z,35.73
2022-07-29T14:42:39.966Z,35.42
2022-07-29T14:45:10.670Z,34.94
2022-07-29T14:47:40.571Z,34.62
2022-07-29T14:50:09.279Z,34.39
2022-07-29T14:52:37.850Z,33.93
2022-07-29T14:55:19.476Z,33.85
2022-07-29T14:57:48.892Z,33.61
2022-07-29T15:00:18.045Z,33.45
2022-07-29T15:03:01.272Z,33.22
2022-07-29T15:05:32.254Z,33.18
2022-07-29T15:08:00.609Z,33.14
2022-07-29T15:10:28.462Z,32.79
2022-07-29T15:13:00.584Z,32.78
2022-07-29T15:15:29.001Z,32.91
2022-07-29T15:17:56.856Z,32.66
2022-07-29T15:20:26.853Z,32.72
2022-07-29T15:22:56.595Z,32.48
2022-07-29T15:25:25.632Z,32.59
2022-07-29T15:28:01.327Z,32.45
2022-07-29T15:30:33.600Z,32.35
2022-07-29T15:33:04.431Z,32.44
2022-07-29T15:35:33.223Z,32.38
2022-07-29T15:38:08.432Z,32.39
2022-07-29T15:40:39.213Z,32.23
2022-07-29T15:43:07.623Z,31.88
2022-07-29T15:45:40.875Z,31.75
2022-07-29T15:48:10.202Z,31.88
2022-07-29T15:50:42.880Z,31.74
2022-07-29T15:53:15.222Z,31.91
2022-07-29T15:55:44.554Z,31.94
2022-07-29T15:58:12.479Z,31.77
2022-07-29T16:00:40.384Z,31.63
2022-07-29T16:03:08.634Z,31.38
2022-07-29T16:05:36.668Z,31.17
2022-07-29T16:08:05.651Z,30.61
2022-07-29T16:10:33.826Z,29.61
2022-07-29T16:13:01.820Z,29.16
2022-07-29T16:15:29.607Z,28.51
2022-07-29T16:17:57.809Z,28.08
2022-07-29T16:20:25.561Z,27.85
2022-07-29T16:22:54.303Z,27.37
2022-07-29T16:25:38.372Z,27.31
2022-07-29T16:28:11.216Z,27.14
2022-07-29T16:30:39.467Z,26.94
2022-07-29T16:33:08.515Z,26.73
2022-07-29T16:35:40.170Z,26.84
2022-07-29T16:38:08.669Z,26.46
2022-07-29T16:40:36.475Z,26.41
2022-07-29T16:43:04.813Z,26.38
2022-07-29T16:45:45.171Z,26.45
2022-07-29T16:48:18.081Z,26.17
2022-07-29T16:50:47.305Z,26.36
2022-07-29T16:53:15.476Z,26.34
2022-07-29T16:55:43.316Z,26.70
2022-07-29T16:58:12.085Z,26.87
2022-07-29T17:00:40.217Z,27.03
2022-07-29T17:03:08.224Z,27.24
2022-07-29T17:05:50.794Z,27.54
2022-07-29T17:08:23.061Z,27.63
2022-07-29T17:10:51.346Z,27.72
2022-07-29T17:13:20.309Z,27.81
2022-07-29T17:15:48.649Z,27.89
2022-07-29T17:18:17.337Z,28.09
2022-07-29T17:20:46.698Z,28.27
2022-07-29T17:23:14.455Z,28.41
2022-07-29T17:25:42.231Z,28.42
2022-07-29T17:28:10.817Z,28.43
2022-07-29T17:30:38.599Z,27.82
2022-07-29T17:33:06.897Z,28.01
2022-07-29T17:35:53.576Z,28.13
2022-07-29T17:38:21.516Z,28.16
2022-07-29T17:40:49.741Z,28.11
2022-07-29T17:43:17.772Z,28.07
2022-07-29T17:45:50.028Z,28.16
2022-07-29T17:48:19.661Z,28.06
2022-07-29T17:50:48.630Z,28.06
2022-07-29T17:53:16.838Z,27.98
2022-07-29T17:55:47.635Z,28.08
2022-07-29T17:58:16.096Z,28.11
2022-07-29T18:00:44.671Z,28.04
2022-07-29T18:03:13.257Z,28.06
2022-07-29T18:05:41.763Z,28.17
2022-07-29T18:08:10.573Z,28.13
2022-07-29T18:10:38.508Z,27.96
2022-07-29T18:13:07.450Z,27.76
2022-07-29T18:15:35.696Z,27.84
2022-07-29T18:18:03.536Z,27.93
2022-07-29T18:20:32.619Z,28.00
2022-07-29T18:23:01.421Z,27.96
2022-07-29T18:25:29.729Z,27.99
2022-07-29T18:28:00.455Z,28.04
2022-07-29T18:30:29.635Z,27.87
2022-07-29T18:35:50.108Z,27.53
2022-07-29T18:38:18.135Z,27.57
2022-07-29T18:40:46.753Z,27.70
2022-07-29T18:43:15.002Z,27.68
2022-07-29T18:45:42.827Z,27.79
2022-07-29T18:48:13.144Z,27.71
2022-07-29T18:50:41.829Z,27.40
2022-07-29T18:53:10.130Z,27.41
2022-07-29T18:55:38.102Z,27.46
2022-07-29T18:58:05.894Z,27.34
2022-07-29T19:00:33.618Z,27.34
2022-07-29T19:03:03.270Z,27.33
2022-07-29T19:05:31.231Z,27.07
2022-07-29T19:07:59.161Z,26.57
2022-07-29T19:10:27.457Z,25.85
2022-07-29T19:12:56.885Z,24.88
2022-07-29T19:15:25.396Z,24.27
2022-07-29T19:18:00.855Z,23.85
2022-07-29T19:20:29.744Z,23.71
2022-07-29T19:22:58.620Z,23.58
2022-07-29T19:25:26.801Z,23.45
2022-07-29T19:27:54.725Z,23.63
2022-07-29T19:30:23.312Z,23.59
2022-07-29T19:32:51.543Z,23.73
2022-07-29T19:35:32.898Z,23.88
2022-07-29T19:38:02.532Z,24.10
2022-07-29T19:40:30.394Z,24.37
2022-07-29T19:42:58.340Z,24.70
2022-07-29T19:45:26.257Z,24.93
2022-07-29T19:47:59.123Z,25.11
2022-07-29T19:50:29.509Z,25.06
2022-07-29T19:52:57.905Z,25.17
2022-07-29T19:55:26.162Z,25.20
2022-07-29T19:57:54.474Z,25.23
2022-07-29T20:00:24.296Z,24.96
2022-07-29T20:02:52.926Z,25.02
2022-07-29T20:05:20.697Z,24.88
2022-07-29T20:07:48.428Z,24.80
2022-07-29T20:10:17.261Z,24.88
2022-07-29T20:12:45.083Z,24.69
2022-07-29T20:15:16.429Z,24.79
2022-07-29T20:17:44.739Z,24.99
2022-07-29T20:20:12.719Z,24.99
2022-07-29T20:22:41.006Z,24.98
2022-07-29T20:25:10.092Z,24.74
2022-07-29T20:27:40.713Z,24.79
2022-07-29T20:30:09.175Z,24.93
2022-07-29T20:32:39.985Z,25.07
2022-07-29T20:35:08.748Z,25.00
2022-07-29T20:37:52.393Z,25.08
2022-07-29T20:40:29.057Z,25.24
2022-07-29T20:42:56.701Z,24.80
2022-07-29T20:45:24.762Z,24.83
2022-07-29T20:47:53.045Z,24.71
2022-07-29T20:50:24.089Z,24.59
2022-07-29T20:52:53.101Z,24.69
2022-07-29T20:55:21.126Z,24.95
2022-07-29T20:57:48.740Z,24.73
2022-07-29T21:00:16.642Z,24.35
2022-07-29T21:02:44.518Z,24.55
2022-07-29T21:05:12.850Z,24.94
2022-07-29T21:07:41.260Z,25.17
2022-07-29T21:10:09.129Z,25.35
2022-07-29T21:12:37.437Z,25.17
2022-07-29T21:15:06.649Z,24.48
2022-07-29T21:17:36.196Z,24.48
2022-07-29T21:20:06.787Z,24.59
2022-07-29T21:22:34.462Z,24.34
2022-07-29T21:25:02.517Z,24.21
2022-07-29T21:27:48.614Z,24.36
2022-07-29T21:30:16.874Z,24.62
2022-07-29T21:32:44.901Z,24.38
2022-07-29T21:35:35.991Z,23.97
2022-07-29T21:38:00.657Z,24.01
2022-07-29T21:40:28.538Z,24.14
2022-07-29T21:42:56.819Z,23.90
2022-07-29T21:45:25.028Z,23.79
2022-07-29T21:47:53.121Z,23.61
2022-07-29T21:50:20.725Z,23.48
2022-07-29T21:52:48.591Z,23.36
2022-07-29T21:55:16.157Z,23.37
2022-07-29T21:57:46.690Z,23.43
2022-07-29T22:00:15.833Z,23.54
2022-07-29T22:02:43.743Z,23.74
2022-07-29T22:05:12.683Z,23.73
2022-07-29T22:07:55.855Z,23.86
2022-07-29T22:10:30.218Z,24.00
2022-07-29T22:12:59.466Z,24.07
2022-07-29T22:15:28.301Z,24.19
2022-07-29T22:17:56.529Z,24.20
2022-07-29T22:20:24.621Z,24.32
2022-07-29T22:22:52.775Z,24.24
2022-07-29T22:25:20.935Z,24.35
2022-07-29T22:27:49.636Z,24.31
2022-07-29T22:30:17.226Z,24.42
2022-07-29T22:32:44.894Z,24.48
2022-07-29T22:35:12.495Z,23.92
2022-07-29T22:37:40.119Z,24.03
2022-07-29T22:40:08.227Z,23.86
2022-07-29T22:42:36.388Z,23.96
2022-07-29T22:45:11.131Z,24.00
2022-07-29T22:47:48.450Z,23.77
2022-07-29T22:50:17.214Z,23.48
2022-07-29T22:52:46.374Z,23.18
2022-07-29T22:55:15.166Z,22.97
2022-07-29T22:57:43.878Z,22.99
2022-07-29T23:00:13.577Z,22.91
2022-07-29T23:02:41.667Z,23.00
2022-07-29T23:05:10.521Z,22.93
2022-07-29T23:07:38.228Z,23.05
2022-07-29T23:10:06.486Z,23.04
2022-07-29T23:12:34.775Z,22.96
2022-07-29T23:15:04.318Z,23.07
2022-07-29T23:17:36.102Z,22.88
2022-07-29T23:20:09.760Z,22.84
2022-07-29T23:22:37.650Z,22.85
2022-07-29T23:25:06.400Z,22.86
2022-07-29T23:27:33.953Z,22.75
2022-07-29T23:30:01.737Z,22.61
2022-07-29T23:32:29.467Z,22.65
2022-07-29T23:34:57.103Z,22.65
2022-07-29T23:37:26.966Z,22.54
2022-07-29T23:39:54.872Z,22.63
2022-07-29T23:42:22.642Z,22.69
2022-07-29T23:44:50.325Z,22.67
2022-07-29T23:47:18.596Z,22.71
2022-07-29T23:49:50.017Z,22.86
2022-07-29T23:52:18.638Z,22.97
2022-07-29T23:54:46.297Z,22.95
2022-07-29T23:57:14.392Z,22.89
2022-07-29T23:59:42.076Z,22.82
